Time;durP1;ratioP1;P1;durP2;ratioP2;P2;SDS_P1;SDS_P2;PMS_P1;PMS_P2;Temp;Humidity;BMP_temperature;BMP_pressure;BME280_temperature;BME280_humidity;BME280_pressure;Samples;Min_cycle;Max_cycle;Signal;HPM_P1;HPM_P2
2023/07/14 00:00:28;;;;;;;3.65;1.60;;;20.30;49.00;;;;;;4982216;28;20066;-55
2023/07/14 00:02:56;;;;;;;4.50;1.50;;;20.30;49.10;;;;;;4980440;28;20065;-53
2023/07/14 00:05:28;;;;;;;3.15;1.42;;;20.30;49.20;;;;;;4980572;28;20070;-55
2023/07/14 00:07:57;;;;;;;4.13;1.75;;;20.30;49.30;;;;;;4983050;28;20522;-55
2023/07/14 00:10:30;;;;;;;6.53;1.90;;;20.30;49.30;;;;;;4981665;28;20506;-56
2023/07/14 00:12:59;;;;;;;5.43;1.67;;;20.30;49.40;;;;;;4982100;28;20061;-52
2023/07/14 00:15:27;;;;;;;4.03;1.80;;;20.20;49.40;;;;;;4982714;28;20057;-54
2023/07/14 00:17:58;;;;;;;3.78;1.55;;;20.20;49.50;;;;;;4982967;28;20051;-52
2023/07/14 00:20:28;;;;;;;5.07;1.80;;;20.20;49.50;;;;;;4980545;28;20058;-53
2023/07/14 00:22:58;;;;;;;4.15;1.40;;;20.20;49.50;;;;;;4983004;28;20058;-51
2023/07/14 00:25:26;;;;;;;3.58;1.50;;;20.10;49.50;;;;;;4983503;28;20517;-52
2023/07/14 00:27:56;;;;;;;5.00;1.80;;;20.10;49.50;;;;;;4982565;28;20118;-55
2023/07/14 00:30:25;;;;;;;4.25;2.03;;;20.10;49.60;;;;;;4980559;28;20065;-53
2023/07/14 00:32:55;;;;;;;4.75;1.50;;;20.10;49.60;;;;;;4980760;28;20050;-51
2023/07/14 00:35:24;;;;;;;3.15;1.42;;;20.10;49.70;;;;;;4982882;28;20069;-56
2023/07/14 00:37:53;;;;;;;3.38;1.98;;;20.00;49.70;;;;;;4982742;28;20050;-52
2023/07/14 00:40:25;;;;;;;2.75;1.60;;;20.00;49.80;;;;;;4983473;28;20062;-52
2023/07/14 00:42:56;;;;;;;4.40;1.80;;;20.00;49.90;;;;;;4981711;28;20058;-53
2023/07/14 00:45:27;;;;;;;8.30;1.95;;;19.90;49.90;;;;;;4982757;28;20585;-58
2023/07/14 00:48:03;;;;;;;2.08;1.50;;;19.90;49.90;;;;;;4983655;28;20046;-58
2023/07/14 00:50:35;;;;;;;3.80;1.85;;;19.90;49.90;;;;;;4980836;28;20419;-58
2023/07/14 00:53:07;;;;;;;5.30;1.73;;;19.90;50.00;;;;;;4982592;28;20054;-58
2023/07/14 00:55:42;;;;;;;3.50;1.65;;;19.90;50.00;;;;;;4983095;28;20057;-57
2023/07/14 00:58:18;;;;;;;4.05;1.75;;;19.90;50.20;;;;;;4982816;28;20062;-57
2023/07/14 01:01:03;;;;;;;3.13;1.52;;;19.90;50.20;;;;;;4979869;28;20061;-55
2023/07/14 01:03:31;;;;;;;2.90;1.58;;;19.80;50.20;;;;;;5010130;23;20051;-52
2023/07/14 01:06:00;;;;;;;4.05;2.00;;;19.80;50.20;;;;;;4962239;28;20057;-50
2023/07/14 01:08:28;;;;;;;5.30;1.80;;;19.80;50.30;;;;;;4962768;28;20061;-49
2023/07/14 01:10:57;;;;;;;3.33;1.88;;;19.80;50.30;;;;;;4961804;28;20055;-53
2023/07/14 01:13:26;;;;;;;2.38;1.60;;;19.70;50.40;;;;;;4961240;28;20054;-49
2023/07/14 01:15:54;;;;;;;4.65;1.75;;;19.70;50.50;;;;;;4962010;28;20529;-47
2023/07/14 01:18:21;;;;;;;6.03;1.88;;;19.70;50.50;;;;;;4960873;28;20387;-52
2023/07/14 01:20:48;;;;;;;2.40;1.50;;;19.70;51.00;;;;;;4962508;28;20609;-52
2023/07/14 01:23:29;;;;;;;3.42;1.70;;;19.70;50.60;;;;;;4963132;28;20062;-48
2023/07/14 01:26:11;;;;;;;3.42;1.38;;;19.60;50.70;;;;;;4961490;28;20062;-51
2023/07/14 01:28:40;;;;;;;3.38;1.70;;;19.60;50.70;;;;;;4962936;28;20054;-51
2023/07/14 01:31:11;;;;;;;3.80;1.60;;;19.60;50.70;;;;;;4960531;28;20069;-53
2023/07/14 01:33:38;;;;;;;5.68;2.22;;;19.60;50.80;;;;;;4961032;28;20499;-50
2023/07/14 01:36:06;;;;;;;4.78;1.60;;;19.60;50.80;;;;;;4961593;28;20061;-49
2023/07/14 01:38:33;;;;;;;3.22;1.63;;;19.60;50.90;;;;;;4962581;28;20118;-49
2023/07/14 01:41:03;;;;;;;5.70;1.50;;;19.50;50.90;;;;;;4961464;28;20411;-46
2023/07/14 01:43:30;;;;;;;3.83;1.85;;;19.60;51.00;;;;;;4962114;28;20066;-53
2023/07/14 01:46:02;;;;;;;2.40;1.75;;;19.50;51.00;;;;;;4961146;28;20070;-54
2023/07/14 01:48:34;;;;;;;3.78;1.80;;;19.50;51.10;;;;;;4962088;28;20047;-52
2023/07/14 01:51:06;;;;;;;4.00;1.88;;;19.50;51.10;;;;;;4959569;28;20498;-54
2023/07/14 01:53:37;;;;;;;3.65;1.70;;;19.50;51.20;;;;;;4963629;28;20054;-51
2023/07/14 01:56:08;;;;;;;3.83;1.70;;;19.50;51.30;;;;;;4962025;28;20073;-50
2023/07/14 01:58:38;;;;;;;2.97;1.50;;;19.50;51.20;;;;;;4961005;28;20059;-54
2023/07/14 02:01:07;;;;;;;3.95;1.70;;;19.50;51.20;;;;;;4957139;28;20066;-50
2023/07/14 02:03:39;;;;;;;3.90;1.65;;;19.40;51.20;;;;;;4970213;28;20046;-52
2023/07/14 02:06:06;;;;;;;6.05;1.98;;;19.50;51.30;;;;;;4979933;28;20058;-52
2023/07/14 02:08:34;;;;;;;2.63;1.50;;;19.40;51.30;;;;;;4981620;28;20076;-51
2023/07/14 02:11:01;;;;;;;2.53;1.52;;;19.40;51.40;;;;;;4980771;28;20061;-51
2023/07/14 02:13:29;;;;;;;5.50;1.63;;;19.40;51.40;;;;;;4981226;28;20380;-53
2023/07/14 02:15:58;;;;;;;3.60;1.95;;;19.40;51.40;;;;;;4981556;28;20042;-47
2023/07/14 02:18:28;;;;;;;4.25;1.58;;;19.40;51.40;;;;;;4981386;28;20494;-50
2023/07/14 02:20:57;;;;;;;3.40;1.65;;;19.40;51.40;;;;;;4977514;28;20058;-49
2023/07/14 02:23:26;;;;;;;4.45;1.70;;;19.30;51.30;;;;;;4981737;28;20065;-48
2023/07/14 02:26:05;;;;;;;4.03;1.75;;;19.30;51.30;;;;;;4980788;28;20073;-52
2023/07/14 02:28:32;;;;;;;3.80;1.77;;;19.30;51.40;;;;;;4980244;28;20418;-48
2023/07/14 02:31:06;;;;;;;5.65;2.13;;;19.30;51.30;;;;;;4978012;28;20058;-48
2023/07/14 02:33:39;;;;;;;2.97;1.48;;;19.20;51.30;;;;;;4982316;28;20050;-49
2023/07/14 02:36:20;;;;;;;6.72;2.00;;;19.20;51.30;;;;;;4977849;28;20061;-50
2023/07/14 02:38:47;;;;;;;4.82;1.70;;;19.20;51.40;;;;;;4980856;28;20490;-50
2023/07/14 02:41:18;;;;;;;4.20;1.90;;;19.20;51.40;;;;;;4979267;28;20058;-52
2023/07/14 02:43:52;;;;;;;6.63;1.80;;;19.20;51.60;;;;;;4980325;28;20050;-46
2023/07/14 02:46:24;;;;;;;9.23;1.77;;;19.20;51.60;;;;;;4980989;28;20055;-49
2023/07/14 02:48:53;;;;;;;4.95;2.20;;;19.20;51.70;;;;;;4981326;28;20054;-53
2023/07/14 02:51:21;;;;;;;5.15;2.45;;;19.20;51.70;;;;;;4977752;28;20426;-49
2023/07/14 02:53:48;;;;;;;5.45;1.88;;;19.10;51.60;;;;;;4981430;28;20446;-47
2023/07/14 02:56:15;;;;;;;6.15;2.03;;;19.10;51.70;;;;;;4979155;28;20058;-51
2023/07/14 02:58:47;;;;;;;4.72;2.10;;;19.10;51.80;;;;;;4979692;28;20050;-51
2023/07/14 03:01:14;;;;;;;4.40;1.85;;;19.10;51.80;;;;;;4976352;28;20050;-45
2023/07/14 03:03:42;;;;;;;3.63;1.50;;;19.10;51.90;;;;;;4980808;28;20054;-48
2023/07/14 03:06:12;;;;;;;3.75;2.10;;;19.10;52.00;;;;;;4969256;28;20084;-51
2023/07/14 03:08:40;;;;;;;2.97;1.50;;;19.00;52.00;;;;;;4977088;28;20061;-49
2023/07/14 03:11:07;;;;;;;19.98;3.15;;;19.00;52.00;;;;;;4981528;28;20050;-56
2023/07/14 03:13:36;;;;;;;5.72;2.28;;;19.00;52.10;;;;;;4977970;28;20609;-52
2023/07/14 03:16:03;;;;;;;6.53;1.80;;;19.00;52.10;;;;;;4979272;28;20061;-49
2023/07/14 03:18:31;;;;;;;4.60;2.15;;;19.00;52.10;;;;;;4979736;28;20054;-45
2023/07/14 03:20:59;;;;;;;2.80;1.60;;;19.00;52.20;;;;;;4979740;28;20065;-48
2023/07/14 03:23:27;;;;;;;4.15;1.88;;;19.00;52.20;;;;;;4981575;28;20054;-54
2023/07/14 03:25:56;;;;;;;2.92;1.60;;;19.00;52.20;;;;;;4978109;28;20061;-52
2023/07/14 03:28:24;;;;;;;5.28;2.15;;;19.00;52.20;;;;;;4978448;28;20057;-49
2023/07/14 03:30:51;;;;;;;2.85;1.70;;;19.00;52.20;;;;;;4961153;28;20553;-46
2023/07/14 03:33:18;;;;;;;7.22;3.20;;;18.90;52.20;;;;;;4979698;28;20054;-46
2023/07/14 03:35:45;;;;;;;5.90;2.70;;;19.00;52.30;;;;;;4978778;28;20058;-49
2023/07/14 03:38:13;;;;;;;6.35;2.00;;;19.00;52.30;;;;;;4980878;28;20057;-47
2023/07/14 03:40:41;;;;;;;3.35;1.73;;;18.90;52.20;;;;;;4980577;28;20517;-45
2023/07/14 03:43:08;;;;;;;4.38;1.63;;;18.90;52.20;;;;;;4984792;28;20065;-46
2023/07/14 03:45:36;;;;;;;3.88;1.90;;;18.90;52.30;;;;;;4976980;28;20426;-48
2023/07/14 03:48:04;;;;;;;5.22;2.30;;;18.90;52.30;;;;;;4982942;28;20062;-47
2023/07/14 03:50:32;;;;;;;4.60;2.10;;;18.90;52.30;;;;;;4982094;28;20051;-48
2023/07/14 03:52:59;;;;;;;3.17;1.73;;;18.90;52.40;;;;;;4983795;28;20058;-48
2023/07/14 03:55:26;;;;;;;4.43;2.10;;;18.80;52.40;;;;;;4983607;28;20065;-47
2023/07/14 03:57:55;;;;;;;3.63;2.08;;;18.80;52.40;;;;;;4984167;28;20046;-47
2023/07/14 04:00:23;;;;;;;3.05;2.10;;;18.80;52.50;;;;;;4983910;28;20050;-51
2023/07/14 04:02:50;;;;;;;2.90;1.95;;;18.80;52.50;;;;;;4982596;28;20065;-46
2023/07/14 04:05:17;;;;;;;4.78;2.30;;;18.80;52.50;;;;;;4978840;28;20054;-47
2023/07/14 04:07:45;;;;;;;6.47;3.00;;;18.80;52.60;;;;;;4980484;28;20065;-55
2023/07/14 04:10:12;;;;;;;4.47;2.10;;;18.80;52.60;;;;;;4983794;28;20410;-47
2023/07/14 04:12:40;;;;;;;4.43;2.15;;;18.80;52.70;;;;;;4982803;28;20050;-48
2023/07/14 04:15:09;;;;;;;5.03;1.92;;;18.80;52.70;;;;;;4983623;28;20065;-46
2023/07/14 04:17:37;;;;;;;4.45;2.33;;;18.80;52.80;;;;;;4983025;28;20589;-52
2023/07/14 04:20:05;;;;;;;5.55;1.95;;;18.80;53.30;;;;;;4980836;28;21515;-45
2023/07/14 04:22:32;;;;;;;3.30;1.90;;;18.70;52.70;;;;;;4983163;28;20529;-50
2023/07/14 04:25:00;;;;;;;2.95;1.73;;;18.70;52.70;;;;;;4984135;28;20062;-47
2023/07/14 04:27:29;;;;;;;3.92;1.67;;;18.70;52.70;;;;;;4983412;28;20058;-53
2023/07/14 04:29:56;;;;;;;3.88;2.03;;;18.70;52.80;;;;;;4982823;28;20050;-54
2023/07/14 04:32:26;;;;;;;3.83;2.00;;;18.70;52.80;;;;;;4982804;28;20046;-50
2023/07/14 04:34:53;;;;;;;4.65;1.90;;;18.70;52.90;;;;;;4984476;28;20050;-45
2023/07/14 04:37:20;;;;;;;4.60;1.88;;;18.70;52.80;;;;;;4978380;28;20486;-54
2023/07/14 04:39:48;;;;;;;3.67;2.08;;;18.70;52.80;;;;;;4982539;28;20061;-55
2023/07/14 04:42:15;;;;;;;17.52;9.27;;;18.70;52.80;;;;;;4983213;28;20054;-54
2023/07/14 04:44:42;;;;;;;17.15;7.63;;;18.70;52.80;;;;;;4979877;28;20058;-48
2023/07/14 04:47:09;;;;;;;6.18;4.35;;;18.70;52.80;;;;;;4980372;28;20054;-55
2023/07/14 04:49:38;;;;;;;7.95;2.85;;;18.70;52.80;;;;;;4983716;28;20058;-55
2023/07/14 04:52:05;;;;;;;3.30;2.10;;;18.70;52.90;;;;;;4982224;28;20066;-49
2023/07/14 04:54:32;;;;;;;6.07;2.08;;;18.70;52.90;;;;;;4980497;28;20062;-46
2023/07/14 04:57:00;;;;;;;4.50;2.13;;;18.70;53.00;;;;;;4983327;28;20054;-53
2023/07/14 04:59:27;;;;;;;4.65;2.10;;;18.70;53.10;;;;;;4980265;28;20054;-45
2023/07/14 05:01:54;;;;;;;2.78;1.80;;;18.70;53.10;;;;;;4982914;28;20050;-51
2023/07/14 05:04:21;;;;;;;2.63;2.00;;;18.70;53.20;;;;;;4979660;28;20065;-46
2023/07/14 05:06:50;;;;;;;11.05;2.03;;;18.70;53.70;;;;;;4978188;28;20065;-46
2023/07/14 05:09:17;;;;;;;4.63;1.95;;;18.70;53.30;;;;;;4982450;28;20126;-51
2023/07/14 05:11:46;;;;;;;4.50;1.77;;;18.80;53.30;;;;;;4979721;28;20058;-46
2023/07/14 05:14:14;;;;;;;6.80;2.05;;;18.80;53.40;;;;;;4984048;28;20061;-48
2023/07/14 05:16:44;;;;;;;4.40;1.75;;;18.80;53.40;;;;;;4981344;28;20061;-51
2023/07/14 05:19:11;;;;;;;7.75;2.20;;;18.80;53.50;;;;;;4982408;28;20057;-51
2023/07/14 05:21:39;;;;;;;3.65;1.90;;;18.80;54.10;;;;;;4982117;28;20371;-49
2023/07/14 05:24:09;;;;;;;3.70;1.90;;;18.80;53.60;;;;;;4983753;28;20069;-46
2023/07/14 05:26:38;;;;;;;2.60;1.80;;;18.90;53.70;;;;;;4979796;28;20632;-48
2023/07/14 05:29:08;;;;;;;5.20;2.17;;;18.90;53.80;;;;;;4981334;28;20058;-49
2023/07/14 05:31:37;;;;;;;2.35;1.60;;;18.90;53.90;;;;;;4980686;28;20065;-47
2023/07/14 05:34:05;;;;;;;5.13;1.92;;;18.90;53.90;;;;;;4983208;28;20055;-49
2023/07/14 05:36:37;;;;;;;5.72;2.47;;;19.00;54.00;;;;;;4979379;28;20418;-52
2023/07/14 05:39:05;;;;;;;7.38;2.42;;;19.00;54.00;;;;;;4983304;28;20058;-47
2023/07/14 05:41:34;;;;;;;9.93;2.28;;;19.00;54.10;;;;;;4981561;28;20413;-47
2023/07/14 05:44:03;;;;;;;4.85;2.05;;;19.10;54.20;;;;;;4982547;28;20065;-50
2023/07/14 05:46:30;;;;;;;3.75;2.20;;;19.10;54.10;;;;;;4981761;28;20065;-45
2023/07/14 05:48:58;;;;;;;5.45;2.50;;;19.10;54.10;;;;;;4982365;28;20050;-52
2023/07/14 05:51:25;;;;;;;9.48;2.58;;;19.20;54.20;;;;;;4982401;28;20490;-51
2023/07/14 05:53:52;;;;;;;7.80;2.47;;;19.20;54.30;;;;;;4981283;28;20046;-54
2023/07/14 05:56:20;;;;;;;3.15;1.77;;;19.30;54.40;;;;;;4980535;28;20057;-51
2023/07/14 05:58:48;;;;;;;3.78;2.10;;;19.30;54.40;;;;;;4980999;28;20046;-51
2023/07/14 06:01:15;;;;;;;6.32;2.05;;;19.30;54.40;;;;;;4976137;28;20065;-54
2023/07/14 06:03:43;;;;;;;4.75;2.40;;;19.30;54.30;;;;;;4979714;28;20522;-50
2023/07/14 06:06:10;;;;;;;4.10;1.85;;;19.40;54.30;;;;;;4979402;28;20058;-50
2023/07/14 06:08:38;;;;;;;5.40;2.30;;;19.50;54.40;;;;;;4981093;28;20422;-51
2023/07/14 06:11:05;;;;;;;3.70;1.80;;;19.50;54.30;;;;;;4977396;28;20061;-52
2023/07/14 06:13:33;;;;;;;9.15;2.03;;;19.50;54.40;;;;;;4977513;28;20050;-51
2023/07/14 06:16:02;;;;;;;5.85;2.08;;;19.60;54.50;;;;;;4978124;28;20062;-51
2023/07/14 06:18:29;;;;;;;5.53;2.03;;;19.60;55.00;;;;;;4980508;28;20046;-50
2023/07/14 06:20:58;;;;;;;3.72;1.90;;;19.60;54.50;;;;;;4980900;28;20053;-55
2023/07/14 06:23:26;;;;;;;5.18;1.85;;;19.70;54.50;;;;;;4981034;28;20062;-52
2023/07/14 06:25:54;;;;;;;4.47;1.80;;;19.70;54.50;;;;;;4978889;28;20050;-54
2023/07/14 06:28:21;;;;;;;6.63;2.08;;;19.80;54.60;;;;;;4980311;28;20057;-52
2023/07/14 06:30:48;;;;;;;4.65;1.90;;;19.80;54.40;;;;;;4980615;28;20490;-53
2023/07/14 06:33:17;;;;;;;5.28;1.80;;;19.90;54.50;;;;;;4980264;28;20502;-53
2023/07/14 06:35:44;;;;;;;6.53;2.45;;;19.90;54.50;;;;;;4980251;28;20054;-52
2023/07/14 06:38:11;;;;;;;10.80;5.15;;;20.00;54.60;;;;;;4978594;28;20054;-52
2023/07/14 06:40:38;;;;;;;11.77;4.90;;;20.10;54.50;;;;;;4980414;28;20054;-54
2023/07/14 06:43:07;;;;;;;11.52;4.32;;;20.10;54.50;;;;;;4980547;28;20054;-51
2023/07/14 06:45:35;;;;;;;6.65;3.38;;;20.20;54.60;;;;;;4979503;28;20054;-54
2023/07/14 06:48:02;;;;;;;5.35;2.55;;;20.20;54.70;;;;;;4978729;28;20061;-50
2023/07/14 06:50:30;;;;;;;4.53;1.85;;;20.30;54.60;;;;;;4977261;28;20406;-53
2023/07/14 06:52:58;;;;;;;6.15;1.80;;;20.40;54.70;;;;;;4981462;28;20050;-51
2023/07/14 06:55:25;;;;;;;6.15;1.77;;;20.40;54.40;;;;;;4977064;28;20418;-51
2023/07/14 06:57:52;;;;;;;8.95;2.05;;;20.50;54.30;;;;;;4982250;28;20054;-52
2023/07/14 07:00:21;;;;;;;3.63;1.55;;;20.60;54.30;;;;;;4976813;28;20058;-55
2023/07/14 07:02:48;;;;;;;5.07;1.85;;;20.60;54.10;;;;;;4978718;28;20061;-48
2023/07/14 07:05:15;;;;;;;5.63;1.77;;;20.70;54.00;;;;;;4978572;28;20379;-49
2023/07/14 07:07:44;;;;;;;7.07;2.78;;;20.80;53.80;;;;;;4978213;28;20054;-53
2023/07/14 07:10:11;;;;;;;5.25;1.92;;;20.90;53.70;;;;;;4978789;28;20054;-48
2023/07/14 07:12:38;;;;;;;6.75;1.52;;;20.90;53.50;;;;;;4977968;28;20046;-50
2023/07/14 07:15:07;;;;;;;2.40;1.50;;;21.00;53.40;;;;;;4978342;28;20062;-46
2023/07/14 07:17:34;;;;;;;4.03;1.45;;;21.10;53.30;;;;;;4982227;28;20058;-44
2023/07/14 07:20:02;;;;;;;5.43;1.90;;;21.20;53.20;;;;;;4981489;28;20525;-48
2023/07/14 07:22:30;;;;;;;4.15;1.55;;;21.20;53.10;;;;;;4983651;28;20501;-46
2023/07/14 07:24:58;;;;;;;2.88;1.52;;;21.30;53.00;;;;;;4984826;28;20062;-51
2023/07/14 07:27:26;;;;;;;5.25;1.77;;;21.30;52.80;;;;;;4986617;28;20062;-44
2023/07/14 07:29:53;;;;;;;2.90;1.60;;;21.40;52.70;;;;;;4985369;28;20391;-45
2023/07/14 07:32:20;;;;;;;3.53;1.60;;;21.50;52.60;;;;;;4986364;28;20065;-47
2023/07/14 07:34:48;;;;;;;2.78;1.55;;;21.50;52.60;;;;;;4983431;28;20054;-49
2023/07/14 07:37:15;;;;;;;4.70;1.65;;;21.70;52.60;;;;;;4986064;28;20507;-47
2023/07/14 07:39:42;;;;;;;5.55;1.48;;;21.70;52.40;;;;;;4984173;28;20058;-55
2023/07/14 07:42:11;;;;;;;3.40;1.58;;;21.80;52.20;;;;;;4985788;28;20054;-51
2023/07/14 07:44:39;;;;;;;3.15;1.70;;;21.80;52.00;;;;;;4986095;28;20061;-45
2023/07/14 07:47:07;;;;;;;4.50;1.50;;;21.90;52.10;;;;;;4983985;28;20069;-47
2023/07/14 07:49:34;;;;;;;2.45;1.42;;;21.90;52.00;;;;;;4984631;28;20478;-46
2023/07/14 07:52:03;;;;;;;4.47;1.65;;;22.00;52.00;;;;;;4984829;28;20050;-48
2023/07/14 07:54:30;;;;;;;4.97;1.88;;;22.00;51.80;;;;;;4983730;28;20777;-45
2023/07/14 07:56:57;;;;;;;9.00;2.47;;;22.10;51.80;;;;;;4985821;28;20498;-47
2023/07/14 07:59:25;;;;;;;4.70;1.45;;;22.10;51.50;;;;;;4985487;28;20058;-46
2023/07/14 08:01:53;;;;;;;3.83;1.92;;;22.20;51.50;;;;;;4983327;28;20050;-47
2023/07/14 08:04:20;;;;;;;7.60;1.85;;;22.30;51.40;;;;;;4984843;28;20066;-46
2023/07/14 08:06:47;;;;;;;6.53;2.22;;;22.30;51.50;;;;;;4985617;28;20057;-48
2023/07/14 08:09:15;;;;;;;4.47;1.75;;;22.40;51.40;;;;;;4984297;28;20395;-54
2023/07/14 08:11:42;;;;;;;5.40;1.83;;;22.40;51.30;;;;;;4985876;28;20054;-47
2023/07/14 08:14:14;;;;;;;7.03;1.63;;;22.50;51.40;;;;;;4985236;28;20069;-49
2023/07/14 08:16:43;;;;;;;6.20;1.67;;;22.60;51.30;;;;;;4984394;28;20054;-49
2023/07/14 08:19:11;;;;;;;3.10;1.60;;;22.60;50.90;;;;;;4984944;28;20490;-53
2023/07/14 08:21:38;;;;;;;4.82;1.70;;;22.70;50.70;;;;;;4985230;28;20123;-51
2023/07/14 08:24:06;;;;;;;2.50;1.42;;;22.80;50.50;;;;;;4985671;28;20062;-50
2023/07/14 08:26:34;;;;;;;10.88;1.60;;;22.80;50.30;;;;;;4982085;28;20077;-48
2023/07/14 08:29:01;;;;;;;4.72;1.50;;;22.80;50.20;;;;;;4984122;28;20069;-50
2023/07/14 08:31:29;;;;;;;8.43;1.70;;;22.90;50.40;;;;;;4981345;28;20734;-52
2023/07/14 08:33:58;;;;;;;3.95;1.58;;;23.00;50.20;;;;;;4985398;28;20054;-50
2023/07/14 08:36:26;;;;;;;4.03;1.88;;;23.10;49.60;;;;;;4979959;28;20061;-49
2023/07/14 08:38:54;;;;;;;3.03;1.42;;;23.10;49.60;;;;;;4985755;28;20066;-53
2023/07/14 08:41:28;;;;;;;2.83;1.50;;;23.20;49.50;;;;;;4983585;28;20070;-53
2023/07/14 08:44:08;;;;;;;;;;;23.30;49.20;;;;;;4985735;28;20337;-51
2023/07/14 08:46:42;;;;;;;2.20;1.50;;;23.40;49.20;;;;;;4982969;28;20651;-49
2023/07/14 08:49:22;;;;;;;10.35;1.75;;;23.50;48.80;;;;;;4985209;28;20085;-52
2023/07/14 08:51:53;;;;;;;4.50;1.80;;;23.60;48.80;;;;;;4983965;28;20058;-52
2023/07/14 08:54:25;;;;;;;3.45;1.90;;;23.60;48.80;;;;;;4982797;28;20061;-53
2023/07/14 08:56:53;;;;;;;2.80;1.55;;;23.70;48.40;;;;;;4983597;28;20061;-51
2023/07/14 08:59:31;;;;;;;6.78;1.70;;;23.70;48.20;;;;;;4984731;28;20533;-49
2023/07/14 09:02:01;;;;;;;4.78;1.98;;;23.80;47.70;;;;;;4980210;28;20050;-51
2023/07/14 09:04:36;;;;;;;3.65;1.55;;;23.90;47.60;;;;;;4981749;28;20062;-51
2023/07/14 09:07:03;;;;;;;3.47;1.70;;;23.90;47.40;;;;;;4983979;28;20054;-52
2023/07/14 09:09:34;;;;;;;3.42;1.45;;;24.00;47.50;;;;;;4982091;28;20062;-53
2023/07/14 09:12:12;;;;;;;3.88;1.55;;;24.00;47.00;;;;;;4979165;28;20519;-53
2023/07/14 09:14:56;;;;;;;3.95;1.80;;;24.00;46.90;;;;;;4983696;28;20418;-51
2023/07/14 09:17:36;;;;;;;8.43;1.80;;;24.10;47.00;;;;;;4978580;28;20069;-50
2023/07/14 09:20:30;;;;;;;4.13;1.77;;;24.10;46.70;;;;;;4981471;28;20054;-46
2023/07/14 09:23:08;;;;;;;3.15;1.60;;;24.20;46.80;;;;;;4956007;28;20050;-47
2023/07/14 09:25:43;;;;;;;4.10;1.70;;;24.20;47.00;;;;;;4981074;28;20073;-48
2023/07/14 09:28:15;;;;;;;3.60;1.38;;;24.30;46.50;;;;;;4980320;28;20418;-47
2023/07/14 09:30:45;;;;;;;2.92;1.63;;;24.40;46.70;;;;;;4981177;28;20057;-42
2023/07/14 09:33:16;;;;;;;5.22;1.90;;;24.40;46.10;;;;;;4984010;28;20493;-43
2023/07/14 09:35:46;;;;;;;3.80;1.70;;;24.40;46.00;;;;;;4979098;28;20533;-46
2023/07/14 09:38:22;;;;;;;9.02;1.92;;;24.50;45.70;;;;;;4982907;28;20064;-53
2023/07/14 09:40:56;;;;;;;5.05;1.83;;;24.60;45.60;;;;;;4982361;28;20057;-44
2023/07/14 09:43:23;;;;;;;6.38;1.70;;;24.60;45.40;;;;;;4981297;28;20130;-47
2023/07/14 09:45:54;;;;;;;2.50;1.63;;;24.70;45.50;;;;;;4979498;28;20080;-48
2023/07/14 09:48:26;;;;;;;4.22;1.65;;;24.70;45.30;;;;;;4981978;28;20062;-44
2023/07/14 09:51:00;;;;;;;6.57;1.98;;;24.70;45.40;;;;;;4978772;28;20057;-43
2023/07/14 09:53:28;;;;;;;3.85;1.65;;;24.80;44.70;;;;;;4982194;28;20053;-43
2023/07/14 09:56:01;;;;;;;4.68;1.60;;;24.90;44.50;;;;;;4982507;28;20046;-47
2023/07/14 09:58:31;;;;;;;5.40;1.70;;;24.90;44.30;;;;;;4980556;28;20058;-46
2023/07/14 10:01:00;;;;;;;3.38;1.50;;;24.90;44.20;;;;;;4982769;28;20057;-49
2023/07/14 10:03:36;;;;;;;4.35;1.52;;;25.00;44.40;;;;;;4981579;28;20062;-48
2023/07/14 10:06:16;;;;;;;13.48;1.90;;;25.10;44.30;;;;;;4979463;28;20058;-46
2023/07/14 10:08:48;;;;;;;3.13;1.60;;;25.10;44.00;;;;;;4982542;28;20046;-47
2023/07/14 10:11:26;;;;;;;4.70;1.50;;;25.20;44.00;;;;;;4981627;28;20414;-45
2023/07/14 10:13:59;;;;;;;4.93;1.98;;;25.20;43.60;;;;;;4979656;28;20391;-46
2023/07/14 10:16:27;;;;;;;4.82;1.80;;;25.30;43.40;;;;;;4978486;28;20050;-48
2023/07/14 10:18:56;;;;;;;4.38;1.70;;;25.30;43.60;;;;;;4980087;28;20058;-47
2023/07/14 10:21:27;;;;;;;4.47;1.73;;;25.40;43.30;;;;;;4979820;28;20061;-45
2023/07/14 10:24:02;;;;;;;4.88;1.65;;;25.40;43.10;;;;;;4980072;28;20517;-52
2023/07/14 10:26:32;;;;;;;4.97;2.03;;;25.40;43.20;;;;;;4979980;28;20081;-45
2023/07/14 10:29:00;;;;;;;4.68;1.90;;;25.40;43.10;;;;;;4977771;28;20054;-55
2023/07/14 10:31:35;;;;;;;6.25;1.73;;;25.50;43.20;;;;;;4980922;28;20050;-45
2023/07/14 10:34:30;;;;;;;4.07;2.05;;;25.50;43.20;;;;;;4982001;28;20051;-53
2023/07/14 10:37:04;;;;;;;4.90;1.70;;;25.50;42.80;;;;;;4977099;28;20062;-45
2023/07/14 10:39:38;;;;;;;4.07;1.60;;;25.60;42.60;;;;;;4982066;28;20062;-47
2023/07/14 10:42:11;;;;;;;2.47;1.73;;;25.60;42.70;;;;;;4980886;28;20138;-48
2023/07/14 10:44:41;;;;;;;5.80;2.03;;;25.60;42.70;;;;;;4983002;28;20058;-47
2023/07/14 10:47:14;;;;;;;3.35;1.60;;;25.60;42.60;;;;;;4982638;28;21491;-52
2023/07/14 10:49:44;;;;;;;5.63;1.80;;;25.60;42.80;;;;;;4982933;28;20096;-45
2023/07/14 10:52:18;;;;;;;3.75;1.42;;;25.70;42.50;;;;;;4982745;28;20058;-44
2023/07/14 10:54:51;;;;;;;12.48;1.92;;;25.60;42.10;;;;;;4982756;28;20079;-51
2023/07/14 10:57:34;;;;;;;8.18;1.70;;;25.70;42.00;;;;;;4984247;28;20069;-45
2023/07/14 11:00:14;;;;;;;6.32;1.73;;;25.70;41.90;;;;;;4984828;28;20601;-49
2023/07/14 11:02:46;;;;;;;5.32;1.63;;;25.80;42.00;;;;;;4985559;28;20054;-47
2023/07/14 11:05:18;;;;;;;4.80;1.58;;;25.80;41.70;;;;;;4983905;28;20054;-49
2023/07/14 11:07:47;;;;;;;6.57;1.88;;;25.80;41.70;;;;;;4980541;28;20054;-50
2023/07/14 11:10:21;;;;;;;4.60;1.83;;;25.80;41.40;;;;;;4986942;28;20409;-50
2023/07/14 11:12:58;;;;;;;6.70;2.40;;;25.80;41.60;;;;;;4986717;28;20050;-44
2023/07/14 11:15:32;;;;;;;5.28;2.10;;;25.90;41.30;;;;;;4985343;28;20054;-45
2023/07/14 11:18:09;;;;;;;4.82;1.50;;;25.90;41.10;;;;;;4986100;28;20061;-47
2023/07/14 11:20:48;;;;;;;4.70;1.77;;;26.00;41.00;;;;;;4983895;28;20506;-44
2023/07/14 11:23:28;;;;;;;5.65;1.88;;;26.00;40.70;;;;;;4985778;28;20050;-46
2023/07/14 11:26:03;;;;;;;7.10;1.88;;;26.00;40.00;;;;;;4984084;28;20054;-44
2023/07/14 11:28:41;;;;;;;4.95;1.75;;;26.10;40.10;;;;;;4986139;28;20058;-46
2023/07/14 11:31:21;;;;;;;4.82;1.70;;;26.10;39.50;;;;;;4985735;28;20058;-50
2023/07/14 11:34:04;;;;;;;7.18;1.70;;;26.10;39.60;;;;;;4983710;28;20058;-42
2023/07/14 11:36:37;;;;;;;5.00;1.80;;;26.20;39.40;;;;;;4982683;28;20491;-46
2023/07/14 11:39:15;;;;;;;4.03;1.90;;;26.20;39.10;;;;;;4986187;28;20584;-43
2023/07/14 11:41:44;;;;;;;8.07;1.67;;;26.30;38.90;;;;;;4984910;28;20058;-47
2023/07/14 11:44:18;;;;;;;8.20;1.77;;;26.30;39.20;;;;;;4986243;28;20055;-44
2023/07/14 11:46:45;;;;;;;4.05;1.60;;;26.30;39.00;;;;;;4985731;28;20061;-53
2023/07/14 11:49:26;;;;;;;4.88;1.90;;;26.40;39.20;;;;;;4986833;28;20057;-47
2023/07/14 11:51:57;;;;;;;2.22;1.20;;;26.40;39.00;;;;;;4983516;28;20057;-42
2023/07/14 11:54:41;;;;;;;2.65;1.42;;;26.50;38.90;;;;;;4985685;28;20395;-44
2023/07/14 11:57:16;;;;;;;5.20;1.73;;;26.50;38.60;;;;;;4984262;28;20058;-47
2023/07/14 11:59:59;;;;;;;2.60;1.20;;;26.50;38.40;;;;;;4986044;28;20498;-45
2023/07/14 12:02:39;;;;;;;4.75;1.30;;;26.50;39.00;;;;;;4985070;28;20061;-47
2023/07/14 12:05:36;;;;;;;5.20;1.40;;;26.50;38.70;;;;;;4984471;28;20609;-45
2023/07/14 12:08:24;;;;;;;2.30;1.27;;;26.50;38.80;;;;;;4983073;28;20054;-43
2023/07/14 12:10:57;;;;;;;4.63;1.63;;;26.60;39.00;;;;;;4984062;28;20093;-43
2023/07/14 12:13:33;;;;;;;3.72;1.40;;;26.60;38.70;;;;;;4985896;28;20054;-48
2023/07/14 12:16:22;;;;;;;2.25;1.20;;;26.60;39.00;;;;;;4983980;28;20524;-44
2023/07/14 12:19:04;;;;;;;4.65;1.60;;;26.60;39.10;;;;;;4985036;28;20062;-45
2023/07/14 12:21:42;;;;;;;5.63;1.73;;;26.70;38.90;;;;;;4984085;28;20113;-51
2023/07/14 12:24:15;;;;;;;4.32;1.35;;;26.70;38.80;;;;;;4984089;28;20057;-48
2023/07/14 12:26:51;;;;;;;3.45;1.20;;;26.70;38.60;;;;;;4984584;28;20054;-45
2023/07/14 12:29:20;;;;;;;3.45;1.52;;;26.70;38.50;;;;;;4983599;28;20058;-45
2023/07/14 12:31:53;;;;;;;3.72;1.23;;;26.70;38.90;;;;;;4985233;28;20418;-45
2023/07/14 12:34:23;;;;;;;6.40;1.42;;;26.70;38.60;;;;;;4984512;28;20054;-51
2023/07/14 12:36:51;;;;;;;1.95;1.40;;;26.70;38.60;;;;;;4981797;28;20053;-50
2023/07/14 12:39:18;;;;;;;4.60;1.60;;;26.80;38.90;;;;;;4984911;28;20054;-48
2023/07/14 12:41:51;;;;;;;3.80;1.90;;;26.80;38.40;;;;;;4983918;28;20050;-49
2023/07/14 12:44:32;;;;;;;5.85;1.95;;;26.80;38.00;;;;;;4983714;28;20053;-48
2023/07/14 12:47:01;;;;;;;4.63;1.35;;;26.80;38.10;;;;;;4982390;28;20061;-54
2023/07/14 12:49:35;;;;;;;7.15;2.33;;;26.80;38.20;;;;;;4983910;28;20054;-54
2023/07/14 12:52:07;;;;;;;3.13;1.40;;;26.80;38.10;;;;;;4981786;28;20067;-49
2023/07/14 12:54:34;;;;;;;2.20;1.30;;;26.80;38.20;;;;;;4983514;28;20050;-50
2023/07/14 12:57:03;;;;;;;3.40;1.67;;;26.80;38.30;;;;;;4983939;28;20055;-49
2023/07/14 12:59:32;;;;;;;4.78;1.52;;;26.90;38.20;;;;;;4984895;28;20054;-49
2023/07/14 13:01:59;;;;;;;4.15;1.35;;;26.90;38.60;;;;;;4982879;28;20050;-51